createdAt,value
2017-07-22T00:00:13.782Z,0
2017-07-22T00:01:14.483Z,0
2017-07-22T00:02:15.194Z,0
2017-07-22T00:03:16.156Z,0
2017-07-22T00:04:16.859Z,0
2017-07-22T00:05:17.559Z,0
2017-07-22T00:06:18.257Z,0
2017-07-22T00:07:18.954Z,0
2017-07-22T00:08:19.906Z,0
2017-07-22T00:09:20.608Z,0
2017-07-22T00:10:21.310Z,0
2017-07-22T00:11:22.013Z,0
2017-07-22T00:12:22.713Z,0
2017-07-22T00:13:23.674Z,0
2017-07-22T00:14:24.373Z,0
2017-07-22T00:15:25.075Z,0
2017-07-22T00:16:25.782Z,0
2017-07-22T00:17:26.492Z,0
2017-07-22T00:18:27.445Z,0
2017-07-22T00:19:28.145Z,0
2017-07-22T00:20:28.846Z,0
2017-07-22T00:21:29.551Z,0
2017-07-22T00:22:30.253Z,0
2017-07-22T00:23:31.201Z,0
2017-07-22T00:24:31.908Z,0
2017-07-22T00:25:32.607Z,0
2017-07-22T00:26:33.308Z,0
2017-07-22T00:27:34.012Z,0
2017-07-22T00:28:34.974Z,0
2017-07-22T00:29:35.675Z,0
2017-07-22T00:30:36.373Z,0
2017-07-22T00:31:37.075Z,0
2017-07-22T00:32:37.780Z,0
2017-07-22T00:33:38.732Z,0
2017-07-22T00:34:39.440Z,0
2017-07-22T00:35:40.137Z,0
2017-07-22T00:36:40.837Z,0
2017-07-22T00:37:41.541Z,0
2017-07-22T00:38:42.492Z,0
2017-07-22T00:39:43.196Z,0
2017-07-22T00:40:43.902Z,0
2017-07-22T00:41:44.603Z,0
2017-07-22T00:42:45.306Z,0
2017-07-22T00:43:46.305Z,0
2017-07-22T00:44:47.004Z,0
2017-07-22T00:45:47.707Z,0
2017-07-22T00:46:48.409Z,0
2017-07-22T00:47:49.111Z,0
2017-07-22T00:48:50.069Z,0
2017-07-22T00:49:50.768Z,0
2017-07-22T00:50:51.474Z,0
2017-07-22T00:51:52.175Z,0
2017-07-22T00:52:52.877Z,0
2017-07-22T00:53:53.831Z,0
2017-07-22T00:54:54.533Z,0
2017-07-22T00:55:55.238Z,0
2017-07-22T00:56:55.934Z,0
2017-07-22T00:57:56.639Z,0
2017-07-22T00:58:57.340Z,0
2017-07-22T00:59:58.042Z,0
2017-07-22T01:00:58.746Z,0
2017-07-22T01:01:59.466Z,0
2017-07-22T01:03:00.170Z,0
2017-07-22T01:04:01.121Z,0
2017-07-22T01:05:01.821Z,0
2017-07-22T01:06:02.520Z,0
2017-07-22T01:07:03.221Z,0
2017-07-22T01:08:03.920Z,0
2017-07-22T01:09:04.870Z,0
2017-07-22T01:10:05.571Z,0
2017-07-22T01:11:06.275Z,0
2017-07-22T01:12:06.977Z,0
2017-07-22T01:13:07.684Z,0
2017-07-22T01:14:08.637Z,0
2017-07-22T01:15:09.341Z,0
2017-07-22T01:16:10.045Z,0
2017-07-22T01:17:10.753Z,0
2017-07-22T01:18:11.456Z,0
2017-07-22T01:19:12.406Z,0
2017-07-22T01:20:13.108Z,0
2017-07-22T01:21:13.810Z,0
2017-07-22T01:22:14.509Z,0
2017-07-22T01:23:15.208Z,0
2017-07-22T01:24:16.157Z,0
2017-07-22T01:25:16.857Z,0
2017-07-22T01:26:17.563Z,0
2017-07-22T01:27:18.262Z,0
2017-07-22T01:28:18.962Z,0
2017-07-22T01:29:19.913Z,0
2017-07-22T01:30:20.616Z,0
2017-07-22T01:31:21.324Z,0
2017-07-22T01:32:22.030Z,0
2017-07-22T01:33:22.731Z,0
2017-07-22T01:34:23.684Z,0
2017-07-22T01:35:24.395Z,0
2017-07-22T01:36:25.097Z,0
2017-07-22T01:37:25.799Z,0
2017-07-22T01:38:26.497Z,0
2017-07-22T01:39:27.446Z,0
2017-07-22T01:40:28.155Z,0
2017-07-22T01:41:28.857Z,0
2017-07-22T01:42:29.557Z,0
2017-07-22T01:43:30.256Z,0
2017-07-22T01:44:31.206Z,0
2017-07-22T01:45:31.905Z,0
2017-07-22T01:46:32.605Z,0
2017-07-22T01:47:33.308Z,0
2017-07-22T01:48:34.011Z,0
2017-07-22T01:49:34.962Z,0
2017-07-22T01:50:35.662Z,0
2017-07-22T01:51:36.368Z,0
2017-07-22T01:52:37.068Z,0
2017-07-22T01:53:37.769Z,0
2017-07-22T01:54:38.723Z,0
2017-07-22T01:55:39.422Z,0
2017-07-22T01:56:40.126Z,0
2017-07-22T01:57:40.825Z,0
2017-07-22T01:58:41.529Z,0
2017-07-22T01:59:42.487Z,0
2017-07-22T02:00:43.186Z,0
2017-07-22T02:01:43.888Z,0
2017-07-22T02:02:44.600Z,0
2017-07-22T02:03:45.307Z,0
2017-07-22T02:04:46.259Z,0
2017-07-22T02:05:46.962Z,0
2017-07-22T02:06:47.664Z,0
2017-07-22T02:07:48.364Z,0
2017-07-22T02:08:49.061Z,0
2017-07-22T02:09:50.015Z,0
2017-07-22T02:10:50.715Z,0
2017-07-22T02:11:51.424Z,0
2017-07-22T02:12:52.124Z,0
2017-07-22T02:13:52.829Z,0
2017-07-22T02:14:53.529Z,0
2017-07-22T02:15:54.233Z,0
2017-07-22T02:16:54.934Z,0
2017-07-22T02:17:55.635Z,0
2017-07-22T02:18:56.335Z,0
2017-07-22T02:19:57.281Z,0
2017-07-22T02:20:57.981Z,0
2017-07-22T02:21:58.680Z,0
2017-07-22T02:22:59.378Z,0
2017-07-22T02:24:00.085Z,0
2017-07-22T02:25:01.037Z,0
2017-07-22T02:26:01.738Z,0
2017-07-22T02:27:02.440Z,0
2017-07-22T02:28:03.141Z,0
2017-07-22T02:29:03.845Z,0
2017-07-22T02:30:04.549Z,0
2017-07-22T02:31:05.255Z,0
2017-07-22T02:32:05.959Z,0
2017-07-22T02:33:06.661Z,0
2017-07-22T02:34:07.361Z,0
2017-07-22T02:35:08.316Z,0
2017-07-22T02:36:09.019Z,0
2017-07-22T02:37:09.723Z,0
2017-07-22T02:38:10.422Z,0
2017-07-22T02:39:11.124Z,0
2017-07-22T02:40:12.083Z,0
2017-07-22T02:41:12.790Z,0
2017-07-22T02:42:13.500Z,0
2017-07-22T02:43:14.199Z,0
2017-07-22T02:44:14.899Z,0
2017-07-22T02:45:15.846Z,0
2017-07-22T02:46:16.546Z,0
2017-07-22T02:47:17.272Z,0
2017-07-22T02:48:17.974Z,0
2017-07-22T02:49:18.676Z,0
2017-07-22T02:50:19.378Z,0
2017-07-22T02:51:20.086Z,0
2017-07-22T02:52:20.785Z,0
2017-07-22T02:53:21.491Z,0
2017-07-22T02:54:22.197Z,0
2017-07-22T02:55:23.146Z,0
2017-07-22T02:56:23.847Z,0
2017-07-22T02:57:24.547Z,0
2017-07-22T02:58:25.251Z,0
2017-07-22T02:59:25.951Z,0
2017-07-22T03:00:26.901Z,0
2017-07-22T03:01:27.602Z,0
2017-07-22T03:02:28.298Z,0
2017-07-22T03:03:28.993Z,0
2017-07-22T03:04:29.689Z,0
2017-07-22T03:05:30.637Z,0
2017-07-22T03:06:31.334Z,0
2017-07-22T03:07:32.034Z,0
2017-07-22T03:08:32.731Z,0
2017-07-22T03:09:33.438Z,0
2017-07-22T03:10:34.393Z,0
2017-07-22T03:11:35.093Z,0
2017-07-22T03:12:35.795Z,4
2017-07-22T03:13:36.490Z,4
2017-07-22T03:14:37.187Z,4
2017-07-22T03:15:38.145Z,0
2017-07-22T03:16:38.849Z,4
2017-07-22T03:17:39.551Z,4
2017-07-22T03:18:40.254Z,4
2017-07-22T03:19:40.953Z,4
2017-07-22T03:20:41.909Z,8
2017-07-22T03:21:42.613Z,4
2017-07-22T03:22:43.312Z,8
2017-07-22T03:23:44.016Z,8
2017-07-22T03:24:44.724Z,12
2017-07-22T03:25:45.678Z,12
2017-07-22T03:26:46.381Z,12
2017-07-22T03:27:47.089Z,12
2017-07-22T03:28:47.788Z,8
2017-07-22T03:29:48.489Z,12
2017-07-22T03:30:49.443Z,12
2017-07-22T03:31:50.143Z,12
2017-07-22T03:32:50.848Z,12
2017-07-22T03:33:51.546Z,12
2017-07-22T03:34:52.244Z,16
2017-07-22T03:35:53.200Z,20
2017-07-22T03:36:53.900Z,20
2017-07-22T03:37:54.600Z,20
2017-07-22T03:38:55.306Z,24
2017-07-22T03:39:56.011Z,28
2017-07-22T03:40:56.966Z,28
2017-07-22T03:41:57.669Z,32
2017-07-22T03:42:58.370Z,36
2017-07-22T03:43:59.068Z,40
2017-07-22T03:44:59.769Z,44
2017-07-22T03:46:00.722Z,48
2017-07-22T03:47:01.433Z,56
2017-07-22T03:48:02.132Z,64
2017-07-22T03:49:02.832Z,68
2017-07-22T03:50:03.536Z,80
2017-07-22T03:51:04.488Z,92
2017-07-22T03:52:05.187Z,112
2017-07-22T03:53:05.890Z,128
2017-07-22T03:54:06.591Z,140
2017-07-22T03:55:07.294Z,148
2017-07-22T03:56:08.248Z,160
2017-07-22T03:57:08.955Z,172
2017-07-22T03:58:09.656Z,200
2017-07-22T03:59:10.363Z,216
2017-07-22T04:00:11.067Z,224
2017-07-22T04:01:12.032Z,244
2017-07-22T04:02:12.738Z,256
2017-07-22T04:03:13.444Z,236
2017-07-22T04:04:14.147Z,244
2017-07-22T04:05:14.850Z,256
2017-07-22T04:06:15.806Z,280
2017-07-22T04:07:16.510Z,308
2017-07-22T04:08:17.220Z,332
2017-07-22T04:09:17.928Z,348
2017-07-22T04:10:18.633Z,380
2017-07-22T04:11:19.585Z,388
2017-07-22T04:12:20.290Z,424
2017-07-22T04:13:20.993Z,448
2017-07-22T04:14:21.700Z,472
2017-07-22T04:15:22.401Z,480
2017-07-22T04:16:23.358Z,504
2017-07-22T04:17:24.062Z,472
2017-07-22T04:18:24.768Z,432
2017-07-22T04:19:25.473Z,436
2017-07-22T04:20:26.178Z,480
2017-07-22T04:21:27.133Z,508
2017-07-22T04:22:27.838Z,528
2017-07-22T04:23:28.542Z,492
2017-07-22T04:24:29.244Z,480
2017-07-22T04:25:29.946Z,496
2017-07-22T04:26:30.905Z,504
2017-07-22T04:27:31.610Z,480
2017-07-22T04:28:32.313Z,476
2017-07-22T04:29:33.019Z,448
2017-07-22T04:30:33.724Z,448
2017-07-22T04:31:34.676Z,448
2017-07-22T04:32:35.389Z,440
2017-07-22T04:33:36.095Z,484
2017-07-22T04:34:36.802Z,536
2017-07-22T04:35:37.515Z,572
2017-07-22T04:36:38.471Z,580
2017-07-22T04:37:39.172Z,528
2017-07-22T04:38:39.879Z,536
2017-07-22T04:39:40.579Z,672
2017-07-22T04:40:41.281Z,752
2017-07-22T04:41:42.235Z,784
2017-07-22T04:42:42.942Z,848
2017-07-22T04:43:43.645Z,976
2017-07-22T04:44:44.349Z,1044
2017-07-22T04:45:45.054Z,1000
2017-07-22T04:46:46.011Z,852
2017-07-22T04:47:46.717Z,688
2017-07-22T04:48:47.423Z,668
2017-07-22T04:49:48.128Z,740
2017-07-22T04:50:48.830Z,832
2017-07-22T04:51:49.796Z,1000
2017-07-22T04:52:50.502Z,1132
2017-07-22T04:53:51.204Z,1200
2017-07-22T04:54:51.905Z,1224
2017-07-22T04:55:52.613Z,1240
2017-07-22T04:56:53.572Z,1200
2017-07-22T04:57:54.283Z,1136
2017-07-22T04:58:54.992Z,1052
2017-07-22T04:59:55.694Z,932
2017-07-22T05:00:56.401Z,828
2017-07-22T05:01:57.352Z,792
2017-07-22T05:02:58.054Z,836
2017-07-22T05:03:58.755Z,880
2017-07-22T05:04:59.455Z,940
2017-07-22T05:06:00.167Z,976
2017-07-22T05:07:01.123Z,1084
2017-07-22T05:08:01.824Z,1196
2017-07-22T05:09:02.531Z,1296
2017-07-22T05:10:03.239Z,1388
2017-07-22T05:11:03.944Z,1472
2017-07-22T05:12:04.898Z,1468
2017-07-22T05:13:05.599Z,1476
2017-07-22T05:14:06.305Z,1580
2017-07-22T05:15:07.009Z,1724
2017-07-22T05:16:07.710Z,1792
2017-07-22T05:17:08.663Z,1832
2017-07-22T05:18:09.367Z,1864
2017-07-22T05:19:10.070Z,1856
2017-07-22T05:20:10.776Z,1756
2017-07-22T05:21:11.483Z,1636
2017-07-22T05:22:12.439Z,1604
2017-07-22T05:23:13.138Z,1692
2017-07-22T05:24:13.844Z,1824
2017-07-22T05:25:14.551Z,1792
2017-07-22T05:26:15.257Z,1776
2017-07-22T05:27:15.960Z,1752
2017-07-22T05:28:16.666Z,1816
2017-07-22T05:29:17.370Z,1764
2017-07-22T05:30:18.076Z,1684
2017-07-22T05:31:18.779Z,1640
2017-07-22T05:32:19.484Z,1700
2017-07-22T05:33:20.189Z,1740
2017-07-22T05:34:20.894Z,1820
2017-07-22T05:35:21.597Z,1804
2017-07-22T05:36:22.299Z,1828
2017-07-22T05:37:23.256Z,1860
2017-07-22T05:38:23.960Z,1888
2017-07-22T05:39:24.658Z,1880
2017-07-22T05:40:25.364Z,1852
2017-07-22T05:41:26.070Z,1820
2017-07-22T05:42:27.029Z,1732
2017-07-22T05:43:27.735Z,1064
2017-07-22T05:44:28.440Z,1180
2017-07-22T05:45:29.141Z,1420
2017-07-22T05:46:29.847Z,1460
2017-07-22T05:47:30.803Z,1516
2017-07-22T05:48:31.518Z,1564
2017-07-22T05:49:32.229Z,1616
2017-07-22T05:50:32.934Z,1692
2017-07-22T05:51:33.642Z,1800
2017-07-22T05:52:34.599Z,1920
2017-07-22T05:53:35.305Z,2032
2017-07-22T05:54:36.008Z,2148
2017-07-22T05:55:36.719Z,2252
2017-07-22T05:56:37.418Z,2352
2017-07-22T05:57:38.373Z,2444
2017-07-22T05:58:39.081Z,2532
2017-07-22T05:59:39.786Z,2584
2017-07-22T06:00:40.486Z,2596
2017-07-22T06:01:41.190Z,2596
2017-07-22T06:02:42.146Z,2600
2017-07-22T06:03:42.853Z,2648
2017-07-22T06:04:43.558Z,2704
2017-07-22T06:05:44.265Z,2704
2017-07-22T06:06:44.970Z,2728
2017-07-22T06:07:45.941Z,2684
2017-07-22T06:08:46.653Z,2592
2017-07-22T06:09:47.358Z,2520
2017-07-22T06:10:48.065Z,2492
2017-07-22T06:11:48.773Z,3028
2017-07-22T06:12:49.731Z,3212
2017-07-22T06:13:50.448Z,3340
2017-07-22T06:14:51.158Z,3484
2017-07-22T06:15:51.872Z,3592
2017-07-22T06:16:52.577Z,3600
2017-07-22T06:17:53.531Z,3488
2017-07-22T06:18:54.235Z,3264
2017-07-22T06:19:54.955Z,3080
2017-07-22T06:20:55.661Z,2940
2017-07-22T06:21:56.366Z,2848
2017-07-22T06:22:57.322Z,2832
2017-07-22T06:23:58.027Z,2908
2017-07-22T06:24:58.726Z,3048
2017-07-22T06:25:59.435Z,3184
2017-07-22T06:27:00.139Z,3324
2017-07-22T06:28:01.090Z,3404
2017-07-22T06:29:01.800Z,3484
2017-07-22T06:30:02.505Z,3600
2017-07-22T06:31:03.215Z,3752
2017-07-22T06:32:03.921Z,3860
2017-07-22T06:33:04.877Z,3900
2017-07-22T06:34:05.584Z,3956
2017-07-22T06:35:06.294Z,4024
2017-07-22T06:36:07.004Z,3988
2017-07-22T06:37:07.707Z,3896
2017-07-22T06:38:08.661Z,3788
2017-07-22T06:39:09.365Z,3752
2017-07-22T06:40:10.074Z,3728
2017-07-22T06:41:10.775Z,3752
2017-07-22T06:42:11.484Z,3652
2017-07-22T06:43:12.435Z,3672
2017-07-22T06:44:13.140Z,3788
2017-07-22T06:45:13.845Z,3820
2017-07-22T06:46:14.552Z,3840
2017-07-22T06:47:15.254Z,3684
2017-07-22T06:48:16.207Z,3588
2017-07-22T06:49:16.911Z,3596
2017-07-22T06:50:17.619Z,3624
2017-07-22T06:51:18.331Z,3324
2017-07-22T06:52:19.037Z,2988
2017-07-22T06:53:19.991Z,2816
2017-07-22T06:54:20.696Z,2820
2017-07-22T06:55:21.402Z,2776
2017-07-22T06:56:22.110Z,2780
2017-07-22T06:57:22.833Z,2908
2017-07-22T06:58:23.789Z,3136
2017-07-22T06:59:24.498Z,3580
2017-07-22T07:00:25.207Z,3712
2017-07-22T07:01:25.913Z,3768
2017-07-22T07:02:26.622Z,4076
2017-07-22T07:03:27.576Z,4092
2017-07-22T07:04:28.278Z,3816
2017-07-22T07:05:28.985Z,3444
2017-07-22T07:06:29.692Z,3148
2017-07-22T07:07:30.401Z,3004
2017-07-22T07:08:31.367Z,2892
2017-07-22T07:09:32.020Z,2720
2017-07-22T07:10:32.768Z,2788
2017-07-22T07:11:33.475Z,3044
2017-07-22T07:12:34.179Z,3424
2017-07-22T07:13:34.891Z,3776
2017-07-22T07:14:35.605Z,4016
2017-07-22T07:15:36.315Z,4380
2017-07-22T07:16:37.028Z,4404
2017-07-22T07:17:37.979Z,4608
2017-07-22T07:18:38.685Z,4800
2017-07-22T07:19:39.394Z,4920
2017-07-22T07:20:40.105Z,5028
2017-07-22T07:21:40.811Z,5136
2017-07-22T07:22:41.775Z,4896
2017-07-22T07:23:42.480Z,4700
2017-07-22T07:24:43.195Z,4400
2017-07-22T07:25:43.910Z,4208
2017-07-22T07:26:44.614Z,3936
2017-07-22T07:27:45.577Z,3644
2017-07-22T07:28:46.290Z,3296
2017-07-22T07:29:46.995Z,2940
2017-07-22T07:30:47.703Z,2636
2017-07-22T07:31:48.406Z,2412
2017-07-22T07:32:49.114Z,2260
2017-07-22T07:33:49.823Z,2164
2017-07-22T07:34:50.538Z,2112
2017-07-22T07:35:51.243Z,2088
2017-07-22T07:36:51.946Z,2168
2017-07-22T07:37:52.900Z,2256
2017-07-22T07:38:53.617Z,2380
2017-07-22T07:39:55.274Z,2716
2017-07-22T07:40:55.982Z,3224
2017-07-22T07:41:56.685Z,3388
2017-07-22T07:42:57.642Z,3368
2017-07-22T07:43:58.353Z,3220
2017-07-22T07:44:59.053Z,3080
2017-07-22T07:45:59.756Z,3248
2017-07-22T07:47:00.463Z,3088
2017-07-22T07:48:01.171Z,3056
2017-07-22T07:49:01.880Z,2944
2017-07-22T07:50:02.590Z,2720
2017-07-22T07:51:03.294Z,2360
2017-07-22T07:52:04.004Z,2128
2017-07-22T07:53:04.711Z,2084
2017-07-22T07:54:05.417Z,2392
2017-07-22T07:55:06.120Z,1864
2017-07-22T07:56:06.837Z,1956
2017-07-22T07:57:07.542Z,2092
2017-07-22T07:58:08.504Z,2132
2017-07-22T07:59:09.207Z,2088
2017-07-22T08:00:09.916Z,2460
2017-07-22T08:01:10.631Z,2764
2017-07-22T08:02:11.337Z,2792
2017-07-22T08:03:12.296Z,2844
2017-07-22T08:04:13.002Z,3000
2017-07-22T08:05:13.706Z,2952
2017-07-22T08:06:14.419Z,2592
2017-07-22T08:07:15.134Z,2412
2017-07-22T08:08:16.091Z,1952
2017-07-22T08:09:16.796Z,1852
2017-07-22T08:10:17.506Z,2064
2017-07-22T08:11:18.211Z,2484
2017-07-22T08:12:18.916Z,2840
2017-07-22T08:13:19.868Z,3568
2017-07-22T08:14:20.578Z,3984
2017-07-22T08:15:21.286Z,4452
2017-07-22T08:16:21.991Z,4800
2017-07-22T08:17:22.695Z,4808
2017-07-22T08:18:23.652Z,5100
2017-07-22T08:19:24.352Z,5384
2017-07-22T08:20:25.057Z,4976
2017-07-22T08:21:25.766Z,4848
2017-07-22T08:22:26.478Z,4424
2017-07-22T08:23:27.438Z,4120
2017-07-22T08:24:28.142Z,4316
2017-07-22T08:25:28.845Z,4276
2017-07-22T08:26:29.548Z,4604
2017-07-22T08:27:30.253Z,4744
2017-07-22T08:28:31.210Z,4684
2017-07-22T08:29:31.915Z,5280
2017-07-22T08:30:32.616Z,5144
2017-07-22T08:31:33.317Z,5076
2017-07-22T08:32:34.028Z,5352
2017-07-22T08:33:34.990Z,5428
2017-07-22T08:34:35.703Z,5152
2017-07-22T08:35:36.413Z,4240
2017-07-22T08:36:37.128Z,4364
2017-07-22T08:37:37.838Z,4424
2017-07-22T08:38:38.793Z,3768
2017-07-22T08:39:39.500Z,3616
2017-07-22T08:40:40.204Z,3604
2017-07-22T08:41:40.902Z,3852
2017-07-22T08:42:41.579Z,3752
2017-07-22T08:43:42.569Z,4408
2017-07-22T08:44:43.281Z,4752
2017-07-22T08:45:43.987Z,4804
2017-07-22T08:46:44.694Z,5116
2017-07-22T08:47:45.412Z,5560
2017-07-22T08:48:46.370Z,5236
2017-07-22T08:49:47.078Z,5092
2017-07-22T08:50:47.784Z,5764
2017-07-22T08:51:48.487Z,5468
2017-07-22T08:52:49.195Z,5776
2017-07-22T08:53:50.149Z,5700
2017-07-22T08:54:50.863Z,5384
2017-07-22T08:55:51.572Z,5412
2017-07-22T08:56:52.284Z,5044
2017-07-22T08:57:52.988Z,5168
2017-07-22T08:58:53.964Z,4056
2017-07-22T08:59:54.673Z,4508
2017-07-22T09:00:55.381Z,4836
2017-07-22T09:01:56.092Z,5440
2017-07-22T09:02:56.808Z,5388
2017-07-22T09:03:57.765Z,5380
2017-07-22T09:04:58.476Z,5464
2017-07-22T09:05:59.180Z,4908
2017-07-22T09:06:59.888Z,4516
2017-07-22T09:08:00.591Z,3868
2017-07-22T09:09:01.549Z,3700
2017-07-22T09:10:02.261Z,3744
2017-07-22T09:11:02.968Z,3596
2017-07-22T09:12:03.682Z,3380
2017-07-22T09:13:04.387Z,3468
2017-07-22T09:14:05.342Z,3308
2017-07-22T09:15:06.048Z,3280
2017-07-22T09:16:06.753Z,2996
2017-07-22T09:17:07.460Z,3136
2017-07-22T09:18:08.174Z,2880
2017-07-22T09:19:09.133Z,3160
2017-07-22T09:20:09.842Z,3740
2017-07-22T09:21:10.550Z,3116
2017-07-22T09:22:11.258Z,3236
2017-07-22T09:23:11.970Z,3432
2017-07-22T09:24:12.925Z,2972
2017-07-22T09:25:13.629Z,3472
2017-07-22T09:26:14.345Z,3476
2017-07-22T09:27:15.057Z,2980
2017-07-22T09:28:15.764Z,2208
2017-07-22T09:29:16.729Z,3616
2017-07-22T09:30:17.441Z,3992
2017-07-22T09:31:18.146Z,5308
2017-07-22T09:32:18.850Z,5392
2017-07-22T09:33:19.475Z,5264
2017-07-22T09:34:20.510Z,5672
2017-07-22T09:35:21.244Z,5260
2017-07-22T09:36:21.949Z,5680
2017-07-22T09:37:22.655Z,5148
2017-07-22T09:38:23.362Z,5444
2017-07-22T09:39:24.331Z,4672
2017-07-22T09:40:25.038Z,5052
2017-07-22T09:41:25.755Z,4204
2017-07-22T09:42:26.689Z,3440
2017-07-22T09:43:27.397Z,3928
2017-07-22T09:44:28.358Z,3784
2017-07-22T09:45:29.064Z,4220
2017-07-22T09:46:29.767Z,4636
2017-07-22T09:47:30.475Z,4740
2017-07-22T09:48:31.182Z,4852
2017-07-22T09:49:32.150Z,4676
2017-07-22T09:50:32.859Z,4532
2017-07-22T09:51:33.579Z,4340
2017-07-22T09:52:34.299Z,4104
2017-07-22T09:53:35.015Z,3988
2017-07-22T09:54:35.978Z,3932
2017-07-22T09:55:36.690Z,3824
2017-07-22T09:56:37.392Z,3744
2017-07-22T09:57:38.166Z,3728
2017-07-22T09:58:38.878Z,3752
2017-07-22T09:59:39.833Z,3788
2017-07-22T10:00:40.554Z,3852
2017-07-22T10:01:41.275Z,3856
2017-07-22T10:02:41.987Z,3848
2017-07-22T10:03:42.698Z,3856
2017-07-22T10:04:43.657Z,3888
2017-07-22T10:05:44.364Z,4032
2017-07-22T10:06:45.070Z,4124
2017-07-22T10:07:45.783Z,4208
2017-07-22T10:08:46.504Z,4300
2017-07-22T10:09:47.477Z,4332
2017-07-22T10:10:48.188Z,4384
2017-07-22T10:11:48.894Z,4416
2017-07-22T10:12:49.601Z,4492
2017-07-22T10:13:50.317Z,4440
2017-07-22T10:14:51.276Z,4396
2017-07-22T10:15:51.997Z,4376
2017-07-22T10:16:52.704Z,3560
2017-07-22T10:17:53.411Z,3640
2017-07-22T10:18:54.118Z,3952
2017-07-22T10:19:55.075Z,3380
2017-07-22T10:20:55.788Z,5040
2017-07-22T10:21:56.502Z,5168
2017-07-22T10:22:57.211Z,5380
2017-07-22T10:23:57.935Z,5244
2017-07-22T10:24:58.893Z,5216
2017-07-22T10:25:59.599Z,5072
2017-07-22T10:27:00.312Z,4968
2017-07-22T10:28:01.019Z,4904
2017-07-22T10:29:01.722Z,4952
2017-07-22T10:30:02.986Z,3632
2017-07-22T10:31:03.695Z,4680
2017-07-22T10:32:04.401Z,5024
2017-07-22T10:33:05.113Z,5284
2017-07-22T10:34:05.825Z,5676
2017-07-22T10:35:06.788Z,5784
2017-07-22T10:36:07.497Z,5428
2017-07-22T10:37:08.206Z,5240
2017-07-22T10:38:08.925Z,5404
2017-07-22T10:39:09.632Z,5664
2017-07-22T10:40:10.581Z,5712
2017-07-22T10:41:11.296Z,5996
2017-07-22T10:42:12.023Z,6524
2017-07-22T10:43:12.734Z,6708
2017-07-22T10:44:13.445Z,6592
2017-07-22T10:45:14.151Z,6316
2017-07-22T10:46:14.855Z,6132
2017-07-22T10:47:15.557Z,6032
2017-07-22T10:48:16.263Z,6104
2017-07-22T10:49:16.969Z,6488
2017-07-22T10:50:17.928Z,6424
2017-07-22T10:51:18.634Z,6492
2017-07-22T10:52:19.357Z,6636
2017-07-22T10:53:20.075Z,6360
2017-07-22T10:54:20.785Z,5956
2017-07-22T10:55:21.743Z,5840
2017-07-22T10:56:22.452Z,6192
2017-07-22T10:57:23.158Z,6188
2017-07-22T10:58:23.866Z,7068
2017-07-22T10:59:24.570Z,7308
2017-07-22T11:00:25.526Z,7692
2017-07-22T11:01:26.244Z,7896
2017-07-22T11:02:26.955Z,7792
2017-07-22T11:03:27.664Z,6836
2017-07-22T11:04:28.378Z,8300
2017-07-22T11:05:29.336Z,9140
2017-07-22T11:06:30.048Z,8844
2017-07-22T11:07:30.762Z,8800
2017-07-22T11:08:31.472Z,9324
2017-07-22T11:09:32.182Z,8752
2017-07-22T11:10:33.141Z,6540
2017-07-22T11:11:33.851Z,7476
2017-07-22T11:12:34.565Z,8992
2017-07-22T11:13:35.275Z,8288
2017-07-22T11:14:35.985Z,7808
2017-07-22T11:15:36.938Z,7384
2017-07-22T11:16:37.648Z,7412
2017-07-22T11:17:38.361Z,7328
2017-07-22T11:18:39.065Z,7132
2017-07-22T11:19:39.765Z,7356
2017-07-22T11:20:40.473Z,7504
2017-07-22T11:21:41.187Z,7544
2017-07-22T11:22:41.902Z,7380
2017-07-22T11:23:42.613Z,6940
2017-07-22T11:24:43.322Z,7104
2017-07-22T11:25:44.285Z,6936
2017-07-22T11:26:44.990Z,6796
2017-07-22T11:27:45.700Z,6956
2017-07-22T11:28:46.406Z,7020
2017-07-22T11:29:47.137Z,7076
2017-07-22T11:30:48.095Z,7204
2017-07-22T11:31:48.802Z,7456
2017-07-22T11:32:49.511Z,7332
2017-07-22T11:33:50.222Z,7248
2017-07-22T11:34:50.934Z,7200
2017-07-22T11:35:51.957Z,7052
2017-07-22T11:36:52.664Z,6784
2017-07-22T11:37:53.378Z,7000
2017-07-22T11:38:54.085Z,7192
2017-07-22T11:39:54.793Z,7480
2017-07-22T11:40:55.755Z,7636
2017-07-22T11:41:56.462Z,7688
2017-07-22T11:42:57.170Z,7888
2017-07-22T11:43:57.878Z,7996
2017-07-22T11:44:58.604Z,7768
2017-07-22T11:45:59.611Z,7780
2017-07-22T11:47:00.324Z,8176
2017-07-22T11:48:01.048Z,8144
2017-07-22T11:49:01.757Z,8024
2017-07-22T11:50:02.470Z,7856
2017-07-22T11:51:03.442Z,7924
2017-07-22T11:52:04.158Z,8088
2017-07-22T11:53:04.876Z,7976
2017-07-22T11:54:05.581Z,7628
2017-07-22T11:55:06.314Z,7320
2017-07-22T11:56:07.276Z,7260
2017-07-22T11:57:07.994Z,7292
2017-07-22T11:58:08.706Z,7544
2017-07-22T11:59:09.424Z,7812
2017-07-22T12:00:10.135Z,8088
2017-07-22T12:01:11.331Z,8120
2017-07-22T12:02:12.046Z,8164
2017-07-22T12:03:12.754Z,7932
2017-07-22T12:04:13.465Z,7852
2017-07-22T12:05:14.182Z,8124
2017-07-22T12:06:15.150Z,8244
2017-07-22T12:07:15.862Z,8220
2017-07-22T12:08:16.584Z,8324
2017-07-22T12:09:17.305Z,8440
2017-07-22T12:10:18.012Z,8388
2017-07-22T12:11:18.969Z,8420
2017-07-22T12:12:19.682Z,8452
2017-07-22T12:13:20.389Z,8624
2017-07-22T12:14:21.095Z,8984
2017-07-22T12:15:21.804Z,8920
2017-07-22T12:16:22.771Z,8680
2017-07-22T12:17:23.480Z,8352
2017-07-22T12:18:24.193Z,8400
2017-07-22T12:19:24.914Z,8808
2017-07-22T12:20:25.619Z,8720
2017-07-22T12:21:26.879Z,8560
2017-07-22T12:22:27.590Z,8424
2017-07-22T12:23:28.312Z,8212
2017-07-22T12:24:29.026Z,8152
2017-07-22T12:25:29.737Z,8144
2017-07-22T12:26:30.699Z,8088
2017-07-22T12:27:31.409Z,8104
2017-07-22T12:28:32.117Z,8140
2017-07-22T12:29:32.731Z,8128
2017-07-22T12:30:33.534Z,8116
2017-07-22T12:31:34.251Z,8228
2017-07-22T12:32:34.959Z,8316
2017-07-22T12:33:35.671Z,8456
2017-07-22T12:34:36.382Z,8520
2017-07-22T12:35:37.095Z,8532
2017-07-22T12:36:38.058Z,8428
2017-07-22T12:37:38.772Z,8268
2017-07-22T12:38:39.481Z,8212
2017-07-22T12:39:40.200Z,8264
2017-07-22T12:40:40.912Z,8344
2017-07-22T12:41:41.878Z,8332
2017-07-22T12:42:42.589Z,8328
2017-07-22T12:43:43.302Z,8340
2017-07-22T12:44:44.017Z,8348
2017-07-22T12:45:44.732Z,8356
2017-07-22T12:46:45.694Z,8416
2017-07-22T12:47:46.405Z,8464
2017-07-22T12:48:47.111Z,8524
2017-07-22T12:49:47.822Z,8576
2017-07-22T12:50:48.531Z,8672
2017-07-22T12:51:49.495Z,8728
2017-07-22T12:52:50.215Z,8764
2017-07-22T12:53:50.927Z,8776
2017-07-22T12:54:51.635Z,8816
2017-07-22T12:55:52.349Z,8820
2017-07-22T12:56:53.318Z,8808
2017-07-22T12:57:54.027Z,8852
2017-07-22T12:58:54.731Z,8860
2017-07-22T12:59:55.440Z,8900
2017-07-22T13:00:56.150Z,8992
2017-07-22T13:01:57.111Z,8984
2017-07-22T13:02:57.825Z,8972
2017-07-22T13:03:58.537Z,8952
2017-07-22T13:04:59.243Z,8960
2017-07-22T13:05:59.961Z,8984
2017-07-22T13:07:00.992Z,9044
2017-07-22T13:08:01.702Z,9124
2017-07-22T13:09:02.415Z,9196
2017-07-22T13:10:03.127Z,9276
2017-07-22T13:11:03.835Z,9356
2017-07-22T13:12:04.794Z,9508
2017-07-22T13:13:05.505Z,9652
2017-07-22T13:14:06.223Z,9820
2017-07-22T13:15:06.931Z,9840
2017-07-22T13:16:07.639Z,10012
2017-07-22T13:17:08.604Z,10248
2017-07-22T13:18:09.320Z,10232
2017-07-22T13:19:10.038Z,10156
2017-07-22T13:20:10.766Z,10244
2017-07-22T13:21:11.486Z,10568
2017-07-22T13:22:12.457Z,11016
2017-07-22T13:23:13.173Z,11968
2017-07-22T13:24:13.884Z,12344
2017-07-22T13:25:14.599Z,10124
2017-07-22T13:26:15.309Z,9664
2017-07-22T13:27:16.270Z,10816
2017-07-22T13:28:16.988Z,10528
2017-07-22T13:29:17.677Z,10324
2017-07-22T13:30:18.394Z,10992
2017-07-22T13:31:19.103Z,11708
2017-07-22T13:32:20.101Z,11320
2017-07-22T13:33:20.811Z,10556
2017-07-22T13:34:21.523Z,11512
2017-07-22T13:35:22.235Z,12028
2017-07-22T13:36:22.946Z,12560
2017-07-22T13:37:23.914Z,12192
2017-07-22T13:38:24.631Z,9892
2017-07-22T13:39:25.341Z,10928
2017-07-22T13:40:26.055Z,11132
2017-07-22T13:41:26.766Z,10900
2017-07-22T13:42:27.753Z,10912
2017-07-22T13:43:28.465Z,11060
2017-07-22T13:44:29.175Z,10872
2017-07-22T13:45:29.886Z,10744
2017-07-22T13:46:30.598Z,10160
2017-07-22T13:47:31.560Z,10104
2017-07-22T13:48:32.280Z,10312
2017-07-22T13:49:32.987Z,10464
2017-07-22T13:50:33.702Z,10716
2017-07-22T13:51:34.425Z,11100